Time;durP1;ratioP1;P1;durP2;ratioP2;P2;SDS_P1;SDS_P2;PMS_P1;PMS_P2;Temp;Humidity;BMP_temperature;BMP_pressure;BME280_temperature;BME280_humidity;BME280_pressure;Samples;Min_cycle;Max_cycle;Signal;HPM_P1;HPM_P2
2021/05/30 00:01:59;;;;;;;;;;;16.80;93.60;;;;;;5029530;28;19909;-75
2021/05/30 00:04:25;;;;;;;;;;;16.80;94.20;;;;;;5014293;28;19975;-75
2021/05/30 00:06:51;;;;;;;;;;;16.80;93.80;;;;;;4996774;28;20343;-76
2021/05/30 00:09:17;;;;;;;;;;;16.80;93.90;;;;;;5014631;28;20236;-74
2021/05/30 00:11:43;;;;;;;;;;;16.70;94.00;;;;;;5014524;28;19912;-77
2021/05/30 00:14:09;;;;;;;;;;;16.80;94.10;;;;;;5029833;28;19996;-73
2021/05/30 00:16:35;;;;;;;;;;;16.70;94.50;;;;;;5014710;28;19906;-75
2021/05/30 00:19:03;;;;;;;;;;;16.70;94.00;;;;;;5014390;28;19905;-76
2021/05/30 00:21:32;;;;;;;;;;;16.70;94.10;;;;;;5016042;28;19909;-75
2021/05/30 00:23:58;;;;;;;;;;;16.60;93.90;;;;;;5018724;28;19909;-75
2021/05/30 00:26:27;;;;;;;;;;;16.50;94.30;;;;;;5018402;28;19913;-76
2021/05/30 00:28:53;;;;;;;;;;;16.50;94.60;;;;;;5018426;28;19960;-75
2021/05/30 00:31:19;;;;;;;;;;;16.50;94.60;;;;;;5000707;28;19909;-74
2021/05/30 00:33:46;;;;;;;;;;;16.50;94.40;;;;;;5033219;28;20263;-76
2021/05/30 00:36:12;;;;;;;;;;;16.40;94.40;;;;;;5000478;28;19912;-76
2021/05/30 00:38:38;;;;;;;;;;;16.40;94.50;;;;;;5018043;28;19909;-76
2021/05/30 00:41:03;;;;;;;;;;;16.40;94.10;;;;;;5017996;28;19968;-75
2021/05/30 00:43:29;;;;;;;;;;;16.50;94.20;;;;;;5018083;28;19906;-76
2021/05/30 00:45:55;;;;;;;;;;;16.40;94.20;;;;;;5018438;28;19905;-77
2021/05/30 00:48:21;;;;;;;;;;;16.40;94.50;;;;;;5000574;28;19909;-74
2021/05/30 00:50:47;;;;;;;;;;;16.30;94.70;;;;;;5018056;28;20009;-73
2021/05/30 00:53:13;;;;;;;;;;;16.20;95.00;;;;;;5018247;28;19912;-77
2021/05/30 00:55:40;;;;;;;;;;;16.30;95.00;;;;;;5017793;28;19917;-75
2021/05/30 00:58:06;;;;;;;;;;;16.30;95.50;;;;;;5018242;28;19909;-77
2021/05/30 01:00:32;;;;;;;;;;;16.20;95.60;;;;;;5018030;28;19909;-77
2021/05/30 01:03:00;;;;;;;;;;;16.20;95.70;;;;;;4999667;28;19909;-74
2021/05/30 01:05:26;;;;;;;;;;;16.20;95.60;;;;;;5017505;28;20059;-76
2021/05/30 01:07:52;;;;;;;;;;;16.10;96.00;;;;;;5017933;28;19936;-75
2021/05/30 01:10:19;;;;;;;;;;;16.10;96.20;;;;;;5017860;28;19956;-76
2021/05/30 01:12:46;;;;;;;;;;;16.00;96.30;;;;;;5017823;28;19906;-77
2021/05/30 01:15:12;;;;;;;;;;;16.20;96.20;;;;;;5017595;28;19928;-76
2021/05/30 01:17:39;;;;;;;;;;;16.30;96.40;;;;;;5017066;28;19928;-75
2021/05/30 01:20:12;;;;;;;;;;;16.30;96.70;;;;;;5017488;28;20318;-77
2021/05/30 01:22:47;;;;;;;;;;;16.00;97.00;;;;;;5017682;28;19909;-74
2021/05/30 01:25:14;;;;;;;;;;;16.00;97.20;;;;;;5017318;28;19911;-76
2021/05/30 01:27:40;;;;;;;;;;;15.90;98.00;;;;;;5017750;28;20336;-76
2021/05/30 01:30:07;;;;;;;;;;;15.90;98.20;;;;;;4999757;28;19905;-77
2021/05/30 01:32:33;;;;;;;;;;;15.90;97.90;;;;;;4999371;28;19960;-77
2021/05/30 01:34:59;;;;;;;;;;;16.00;97.90;;;;;;5016983;28;19962;-75
2021/05/30 01:37:25;;;;;;;;;;;16.20;97.50;;;;;;4999178;28;20307;-76
2021/05/30 01:39:51;;;;;;;;;;;16.20;97.70;;;;;;5017289;28;20011;-74
2021/05/30 01:42:22;;;;;;;;;;;16.10;98.10;;;;;;4999209;28;19932;-77
2021/05/30 01:44:48;;;;;;;;;;;16.10;98.40;;;;;;5016868;28;19943;-77
2021/05/30 01:47:13;;;;;;;;;;;16.10;98.00;;;;;;5017405;28;19905;-78
2021/05/30 01:49:40;;;;;;;;;;;16.00;98.40;;;;;;5016898;28;20011;-77
2021/05/30 01:52:07;;;;;;;;;;;16.10;98.40;;;;;;5032317;28;19909;-75
2021/05/30 01:54:35;;;;;;;;;;;16.10;98.10;;;;;;5016935;28;19913;-76
2021/05/30 01:57:05;;;;;;;;;;;15.80;98.70;;;;;;5016363;28;19917;-75
2021/05/30 01:59:30;;;;;;;;;;;15.70;98.90;;;;;;4998875;28;19909;-76
2021/05/30 02:01:57;;;;;;;;;;;15.70;98.70;;;;;;5016600;28;19913;-76
2021/05/30 02:04:27;;;;;;;;;;;15.70;99.20;;;;;;4998806;28;19927;-76
2021/05/30 02:06:53;;;;;;;;;;;15.70;99.60;;;;;;5031252;28;19928;-76
2021/05/30 02:09:19;;;;;;;;;;;15.60;99.60;;;;;;4998745;28;19905;-76
2021/05/30 02:11:45;;;;;;;;;;;15.70;99.60;;;;;;4998972;28;19905;-74
2021/05/30 02:14:12;;;;;;;;;;;15.60;99.60;;;;;;5016368;28;19996;-77
2021/05/30 02:16:39;;;;;;;;;;;15.70;99.60;;;;;;5031624;28;19905;-75
2021/05/30 02:19:05;;;;;;;;;;;15.70;99.90;;;;;;5016322;28;19905;-74
2021/05/30 02:21:50;;;;;;;;;;;15.60;99.90;;;;;;5016115;28;20271;-77
2021/05/30 02:24:16;;;;;;;;;;;15.80;99.90;;;;;;5015826;28;19910;-76
2021/05/30 02:26:42;;;;;;;;;;;15.90;99.50;;;;;;5015863;28;19906;-76
2021/05/30 02:29:09;;;;;;;;;;;15.50;99.90;;;;;;4998243;28;19913;-75
2021/05/30 02:31:35;;;;;;;;;;;15.60;99.90;;;;;;5015781;28;19920;-76
2021/05/30 02:34:00;;;;;;;;;;;15.60;99.90;;;;;;5016211;28;19905;-75
2021/05/30 02:36:27;;;;;;;;;;;15.40;99.90;;;;;;4998044;28;19916;-77
2021/05/30 02:38:54;;;;;;;;;;;15.50;99.90;;;;;;5015439;28;19935;-74
2021/05/30 02:41:19;;;;;;;;;;;15.60;99.90;;;;;;4997874;28;19936;-77
2021/05/30 02:43:47;;;;;;;;;;;15.40;99.90;;;;;;5015087;28;20274;-77
2021/05/30 02:46:13;;;;;;;;;;;15.40;99.90;;;;;;5015548;28;20001;-75
2021/05/30 02:48:39;;;;;;;;;;;15.40;99.90;;;;;;5015432;28;19996;-76
2021/05/30 02:51:05;;;;;;;;;;;15.40;99.90;;;;;;4997973;28;19913;-78
2021/05/30 02:53:32;;;;;;;;;;;15.40;99.90;;;;;;4998013;28;19905;-76
2021/05/30 02:55:58;;;;;;;;;;;15.30;99.90;;;;;;5015249;28;20284;-73
2021/05/30 02:58:25;;;;;;;;;;;15.30;99.90;;;;;;5015401;28;19912;-74
2021/05/30 03:00:50;;;;;;;;;;;15.40;99.90;;;;;;5015596;28;19916;-77
2021/05/30 03:03:16;;;;;;;;;;;15.40;99.70;;;;;;5015822;28;19905;-75
2021/05/30 03:05:42;;;;;;;;;;;15.40;99.70;;;;;;5015543;28;19905;-76
2021/05/30 03:08:08;;;;;;;;;;;15.40;99.60;;;;;;5014919;28;19909;-74
2021/05/30 03:10:33;;;;;;;;;;;15.30;99.90;;;;;;5030385;28;19937;-76
2021/05/30 03:12:59;;;;;;;;;;;15.40;99.40;;;;;;5013744;28;19928;-76
2021/05/30 03:15:26;;;;;;;;;;;15.30;99.50;;;;;;4997525;28;19905;-76
2021/05/30 03:17:52;;;;;;;;;;;15.20;99.90;;;;;;5013621;28;20263;-75
2021/05/30 03:20:18;;;;;;;;;;;15.10;99.90;;;;;;5014760;28;19913;-75
2021/05/30 03:22:43;;;;;;;;;;;15.10;99.90;;;;;;5015456;28;19916;-76
2021/05/30 03:25:10;;;;;;;;;;;15.10;99.90;;;;;;5014571;28;19905;-76
2021/05/30 03:27:36;;;;;;;;;;;15.10;99.90;;;;;;4997373;28;19909;-76
2021/05/30 03:30:03;;;;;;;;;;;15.00;99.90;;;;;;5014416;28;20013;-72
2021/05/30 03:32:29;;;;;;;;;;;15.10;99.90;;;;;;5014740;28;19913;-75
2021/05/30 03:34:55;;;;;;;;;;;15.20;99.90;;;;;;4997154;28;20012;-76
2021/05/30 03:37:21;;;;;;;;;;;15.30;99.90;;;;;;4998255;28;20384;-78
2021/05/30 03:39:47;;;;;;;;;;;15.30;99.90;;;;;;5015350;28;19932;-75
2021/05/30 03:42:18;;;;;;;;;;;15.30;99.90;;;;;;5016038;28;19955;-78
2021/05/30 03:44:44;;;;;;;;;;;15.30;99.90;;;;;;5014433;28;19906;-75
2021/05/30 03:47:12;;;;;;;;;;;15.30;99.90;;;;;;5015284;28;19932;-78
2021/05/30 03:49:39;;;;;;;;;;;15.30;99.90;;;;;;5014839;28;19905;-72
2021/05/30 03:52:05;;;;;;;;;;;15.20;99.90;;;;;;5014379;28;19913;-76
2021/05/30 03:54:31;;;;;;;;;;;15.20;99.90;;;;;;4997802;28;20012;-76
2021/05/30 03:56:56;;;;;;;;;;;15.20;99.90;;;;;;5014186;28;20000;-73
2021/05/30 03:59:22;;;;;;;;;;;15.00;99.90;;;;;;5015027;28;19912;-74
2021/05/30 04:01:48;;;;;;;;;;;15.20;99.90;;;;;;5013523;28;20343;-74
2021/05/30 04:04:14;;;;;;;;;;;15.20;99.90;;;;;;5014215;28;19909;-76
2021/05/30 04:06:40;;;;;;;;;;;15.20;99.90;;;;;;5015657;28;19905;-74
2021/05/30 04:09:05;;;;;;;;;;;15.20;99.90;;;;;;5014503;28;19906;-78
2021/05/30 04:11:31;;;;;;;;;;;15.10;99.90;;;;;;5031012;28;19912;-78
2021/05/30 04:13:57;;;;;;;;;;;15.20;99.90;;;;;;5014743;28;20299;-76
2021/05/30 04:16:23;;;;;;;;;;;15.10;99.90;;;;;;5014870;28;19905;-76
2021/05/30 04:18:48;;;;;;;;;;;15.20;99.90;;;;;;5014172;28;19912;-73
2021/05/30 04:21:14;;;;;;;;;;;15.10;99.90;;;;;;5014704;28;19952;-75
2021/05/30 04:23:40;;;;;;;;;;;15.10;99.90;;;;;;5014599;28;19954;-78
2021/05/30 04:26:06;;;;;;;;;;;15.10;99.90;;;;;;5014369;28;19948;-75
2021/05/30 04:28:32;;;;;;;;;;;15.40;99.90;;;;;;4996586;28;19905;-76
2021/05/30 04:30:58;;;;;;;;;;;15.30;99.90;;;;;;5014246;28;20339;-75
2021/05/30 04:33:24;;;;;;;;;;;15.20;99.90;;;;;;5014565;28;19906;-74
2021/05/30 04:35:49;;;;;;;;;;;15.30;99.90;;;;;;5014840;28;19906;-76
2021/05/30 04:38:18;;;;;;;;;;;15.20;99.90;;;;;;5014614;28;20344;-74
2021/05/30 04:40:44;;;;;;;;;;;15.20;99.90;;;;;;5014201;28;20263;-75
2021/05/30 04:43:09;;;;;;;;;;;15.20;99.90;;;;;;5013066;28;19912;-73
2021/05/30 04:45:35;;;;;;;;;;;15.20;99.90;;;;;;5013092;28;19905;-72
2021/05/30 04:48:01;;;;;;;;;;;15.20;99.90;;;;;;5014045;28;20355;-75
2021/05/30 04:50:27;;;;;;;;;;;15.20;99.90;;;;;;5014330;28;19909;-76
2021/05/30 04:52:52;;;;;;;;;;;15.10;99.90;;;;;;4996513;28;20326;-77
2021/05/30 04:55:18;;;;;;;;;;;15.30;99.90;;;;;;5013598;28;19917;-75
2021/05/30 04:57:45;;;;;;;;;;;15.30;99.90;;;;;;5029397;28;19905;-77
2021/05/30 05:00:12;;;;;;;;;;;15.30;99.90;;;;;;5014598;28;20260;-77
2021/05/30 05:02:38;;;;;;;;;;;15.50;99.90;;;;;;5014354;28;19910;-76
2021/05/30 05:05:04;;;;;;;;;;;15.20;99.90;;;;;;5014175;28;20306;-75
2021/05/30 05:07:30;;;;;;;;;;;15.30;99.90;;;;;;5013389;28;19905;-74
2021/05/30 05:09:55;;;;;;;;;;;15.30;99.90;;;;;;5018340;28;20254;-76
2021/05/30 05:12:21;;;;;;;;;;;15.20;99.90;;;;;;5032592;28;19912;-76
2021/05/30 05:14:47;;;;;;;;;;;15.10;99.90;;;;;;5017784;28;19962;-76
2021/05/30 05:17:13;;;;;;;;;;;15.20;99.90;;;;;;5017320;28;19912;-77
2021/05/30 05:19:39;;;;;;;;;;;15.40;99.90;;;;;;5017856;28;20296;-75
2021/05/30 05:22:04;;;;;;;;;;;15.60;99.90;;;;;;5017360;28;19909;-76
2021/05/30 05:24:31;;;;;;;;;;;15.70;99.90;;;;;;5017445;28;20340;-75
2021/05/30 05:26:57;;;;;;;;;;;15.60;99.90;;;;;;5017367;28;19948;-76
2021/05/30 05:29:23;;;;;;;;;;;15.60;99.90;;;;;;5017341;28;20294;-78
2021/05/30 05:31:49;;;;;;;;;;;15.80;99.90;;;;;;5018405;28;19909;-76
2021/05/30 05:34:14;;;;;;;;;;;15.70;99.90;;;;;;5017219;28;20305;-75
2021/05/30 05:36:40;;;;;;;;;;;15.80;99.90;;;;;;5017130;28;19912;-74
2021/05/30 05:39:06;;;;;;;;;;;15.80;99.90;;;;;;5017365;28;19906;-77
2021/05/30 05:41:32;;;;;;;;;;;15.70;99.90;;;;;;4999615;28;19916;-77
2021/05/30 05:43:58;;;;;;;;;;;;;;;;;;4999691;28;20374;-75
2021/05/30 05:46:24;;;;;;;;;;;16.00;99.20;;;;;;5032208;28;19912;-79
2021/05/30 05:48:50;;;;;;;;;;;16.10;99.10;;;;;;5017386;28;19906;-74
2021/05/30 05:51:16;;;;;;;;;;;16.00;98.80;;;;;;5016817;28;19948;-73
2021/05/30 05:53:42;;;;;;;;;;;16.10;98.50;;;;;;5016839;28;19905;-74
2021/05/30 05:56:07;;;;;;;;;;;16.30;98.20;;;;;;5016512;28;19921;-74
2021/05/30 05:58:33;;;;;;;;;;;16.50;97.50;;;;;;5016505;28;19955;-74
2021/05/30 06:00:59;;;;;;;;;;;16.60;97.50;;;;;;5016470;28;19915;-76
2021/05/30 06:03:25;;;;;;;;;;;16.50;96.20;;;;;;5015384;28;20356;-75
2021/05/30 06:05:51;;;;;;;;;;;16.50;96.00;;;;;;5015384;28;19905;-75
2021/05/30 06:08:16;;;;;;;;;;;16.80;95.90;;;;;;5015836;28;19913;-73
2021/05/30 06:10:42;;;;;;;;;;;17.00;95.80;;;;;;5016739;28;19913;-77
2021/05/30 06:13:11;;;;;;;;;;;16.90;95.10;;;;;;5016437;28;19905;-74
2021/05/30 06:15:40;;;;;;;;;;;17.00;95.20;;;;;;5016618;28;19945;-77
2021/05/30 06:18:14;;;;;;;;;;;17.00;94.50;;;;;;4998544;28;20478;-74
2021/05/30 06:20:41;;;;;;;;;;;17.00;94.30;;;;;;5015534;28;20351;-75
2021/05/30 06:23:06;;;;;;;;;;;17.20;93.80;;;;;;5016487;28;19933;-75
2021/05/30 06:25:33;;;;;;;;;;;17.40;93.90;;;;;;5016204;28;19952;-76
2021/05/30 06:27:59;;;;;;;;;;;17.60;93.80;;;;;;5016410;28;19928;-74
2021/05/30 06:30:25;;;;;;;;;;;17.80;92.60;;;;;;4998901;28;19906;-76
2021/05/30 06:32:51;;;;;;;;;;;17.70;92.70;;;;;;4999113;28;19905;-79
2021/05/30 06:35:17;;;;;;;;;;;;;;;;;;5014892;28;19916;-74
2021/05/30 06:37:43;;;;;;;;;;;17.90;93.30;;;;;;5031494;28;20004;-75
2021/05/30 06:40:09;;;;;;;;;;;17.90;92.10;;;;;;4998367;28;20406;-76
2021/05/30 06:42:35;;;;;;;;;;;18.10;92.30;;;;;;5016045;28;19916;-76
2021/05/30 06:45:01;;;;;;;;;;;18.20;91.90;;;;;;4998220;28;19906;-76
2021/05/30 06:47:27;;;;;;;;;;;18.40;92.30;;;;;;4997946;28;19910;-73
2021/05/30 06:49:52;;;;;;;;;;;18.30;92.80;;;;;;5016095;28;19912;-75
2021/05/30 06:52:18;;;;;;;;;;;18.50;91.80;;;;;;5015787;28;19996;-73
2021/05/30 06:54:44;;;;;;;;;;;18.50;92.00;;;;;;5015633;28;20344;-73
2021/05/30 06:57:09;;;;;;;;;;;18.50;90.90;;;;;;5014102;28;20418;-74
2021/05/30 06:59:35;;;;;;;;;;;18.40;90.50;;;;;;5015228;28;19905;-75
2021/05/30 07:02:01;;;;;;;;;;;;;;;;;;5015686;28;19967;-75
2021/05/30 07:04:28;;;;;;;;;;;18.80;90.30;;;;;;5015369;28;19910;-75
2021/05/30 07:06:54;;;;;;;;;;;18.80;90.10;;;;;;5016055;28;20389;-76
2021/05/30 07:09:20;;;;;;;;;;;18.90;90.20;;;;;;5016299;28;19905;-76
2021/05/30 07:11:46;;;;;;;;;;;18.80;90.20;;;;;;5017774;28;19913;-77
2021/05/30 07:14:12;;;;;;;;;;;19.20;90.10;;;;;;5017260;28;20012;-78
2021/05/30 07:16:37;;;;;;;;;;;19.40;90.20;;;;;;4998691;28;19912;-74
2021/05/30 07:19:03;;;;;;;;;;;19.60;88.70;;;;;;4997637;28;20232;-77
2021/05/30 07:21:29;;;;;;;;;;;19.50;86.00;;;;;;5014950;28;20332;-76
2021/05/30 07:23:55;;;;;;;;;;;19.50;85.90;;;;;;5015272;28;19913;-77
2021/05/30 07:26:21;;;;;;;;;;;19.40;87.10;;;;;;5015059;28;19952;-79
2021/05/30 07:28:46;;;;;;;;;;;19.70;87.30;;;;;;5029827;28;19933;-75
2021/05/30 07:31:13;;;;;;;;;;;19.70;84.90;;;;;;5014068;28;19913;-78
2021/05/30 07:33:38;;;;;;;;;;;19.70;84.30;;;;;;5014968;28;19905;-74
2021/05/30 07:36:05;;;;;;;;;;;19.80;85.50;;;;;;5014626;28;19905;-76
2021/05/30 07:38:31;;;;;;;;;;;19.70;84.30;;;;;;5014661;28;19913;-75
2021/05/30 07:40:57;;;;;;;;;;;19.40;85.70;;;;;;5015339;28;20354;-76
2021/05/30 07:43:23;;;;;;;;;;;19.20;85.30;;;;;;5014722;28;19905;-76
2021/05/30 07:45:49;;;;;;;;;;;19.20;85.60;;;;;;5014390;28;19949;-73
2021/05/30 07:48:15;;;;;;;;;;;19.90;84.00;;;;;;4997028;28;20003;-76
2021/05/30 07:50:40;;;;;;;;;;;20.00;81.80;;;;;;5014154;28;20303;-78
2021/05/30 07:53:06;;;;;;;;;;;19.60;80.50;;;;;;5012741;28;20240;-74
2021/05/30 07:55:32;;;;;;;;;;;19.70;81.60;;;;;;5014427;28;20322;-75
2021/05/30 07:57:58;;;;;;;;;;;20.00;79.30;;;;;;5031619;28;19905;-77
2021/05/30 08:00:24;;;;;;;;;;;20.30;79.10;;;;;;4997337;28;20410;-74
2021/05/30 08:02:51;;;;;;;;;;;20.50;78.60;;;;;;4997178;28;19928;-77
2021/05/30 08:05:19;;;;;;;;;;;20.60;78.80;;;;;;5014982;28;19912;-75
2021/05/30 08:07:45;;;;;;;;;;;20.90;77.20;;;;;;5016750;28;19905;-79
2021/05/30 08:10:12;;;;;;;;;;;21.80;76.70;;;;;;5016812;28;19928;-75
2021/05/30 08:12:38;;;;;;;;;;;21.90;76.40;;;;;;5014834;28;19906;-75
2021/05/30 08:15:05;;;;;;;;;;;21.20;73.00;;;;;;5015524;28;20035;-74
2021/05/30 08:17:31;;;;;;;;;;;20.30;76.50;;;;;;5015068;28;19928;-77
2021/05/30 08:19:57;;;;;;;;;;;20.50;76.80;;;;;;5015206;28;20000;-79
2021/05/30 08:22:23;;;;;;;;;;;20.80;75.70;;;;;;5016020;28;20052;-76
2021/05/30 08:24:49;;;;;;;;;;;21.20;72.60;;;;;;5014524;28;19981;-78
2021/05/30 08:27:15;;;;;;;;;;;21.60;72.20;;;;;;5028359;28;19956;-78
2021/05/30 08:29:41;;;;;;;;;;;21.20;70.40;;;;;;5033475;28;20307;-76
2021/05/30 08:32:07;;;;;;;;;;;21.80;74.10;;;;;;5033251;28;20274;-77
2021/05/30 08:34:33;;;;;;;;;;;22.40;74.10;;;;;;5033734;28;19905;-79
2021/05/30 08:36:59;;;;;;;;;;;22.90;72.80;;;;;;5015825;28;19913;-74
2021/05/30 08:39:24;;;;;;;;;;;21.70;70.50;;;;;;5033443;28;19948;-78
2021/05/30 08:41:50;;;;;;;;;;;21.30;72.90;;;;;;5033740;28;19960;-76
2021/05/30 08:44:16;;;;;;;;;;;21.10;72.60;;;;;;5037553;28;19913;-78
2021/05/30 08:46:42;;;;;;;;;;;21.10;72.90;;;;;;5037352;28;19905;-79
2021/05/30 08:49:09;;;;;;;;;;;21.80;73.90;;;;;;5035742;28;19905;-79
2021/05/30 08:51:39;;;;;;;;;;;21.70;72.80;;;;;;5035717;28;19948;-78
2021/05/30 08:54:12;;;;;;;;;;;21.00;70.10;;;;;;5037291;28;20351;-78
2021/05/30 08:56:40;;;;;;;;;;;20.60;71.40;;;;;;5037551;28;19917;-74
2021/05/30 08:59:33;;;;;;;;;;;21.10;72.90;;;;;;5038113;28;20346;-77
2021/05/30 09:02:00;;;;;;;;;;;21.30;69.10;;;;;;5019340;28;19921;-75
2021/05/30 09:04:30;;;;;;;;;;;21.80;68.70;;;;;;5038390;28;19905;-78
2021/05/30 09:06:56;;;;;;;;;;;21.30;67.60;;;;;;5037627;28;19904;-78
2021/05/30 09:09:22;;;;;;;;;;;21.10;67.70;;;;;;5036722;28;19912;-77
2021/05/30 09:11:49;;;;;;;;;;;20.80;68.10;;;;;;5037065;28;20007;-73
2021/05/30 09:14:18;;;;;;;;;;;21.90;70.50;;;;;;5018697;28;19905;-74
2021/05/30 09:16:54;;;;;;;;;;;22.60;69.00;;;;;;5036537;28;19966;-77
2021/05/30 09:19:29;;;;;;;;;;;22.50;67.00;;;;;;5035313;28;20278;-71
2021/05/30 09:22:15;;;;;;;;;;;23.00;69.10;;;;;;5034100;28;19924;-71
2021/05/30 09:24:47;;;;;;;;;;;23.20;68.60;;;;;;5002634;28;19905;-72
2021/05/30 09:27:13;;;;;;;;;;;22.40;65.80;;;;;;5034118;28;20262;-72
2021/05/30 09:29:38;;;;;;;;;;;21.70;65.50;;;;;;5034013;28;19905;-70
2021/05/30 09:32:04;;;;;;;;;;;22.50;67.60;;;;;;5033904;28;19905;-71
2021/05/30 09:34:30;;;;;;;;;;;23.30;65.10;;;;;;5033099;28;19904;-73
2021/05/30 09:36:56;;;;;;;;;;;23.00;64.80;;;;;;5034865;28;19912;-74
2021/05/30 09:39:39;;;;;;;;;;;22.70;64.30;;;;;;5036400;28;19905;-73
2021/05/30 09:42:25;;;;;;;;;;;23.00;60.60;;;;;;5036270;28;20343;-75
2021/05/30 09:44:58;;;;;;;;;;;22.80;60.90;;;;;;5018550;28;19909;-73
2021/05/30 09:47:36;;;;;;;;;;;21.90;64.00;;;;;;5036055;28;19942;-72
2021/05/30 09:50:06;;;;;;;;;;;21.30;63.10;;;;;;5018390;28;19913;-74
2021/05/30 09:52:42;;;;;;;;;;;22.10;65.70;;;;;;5036203;28;20286;-72
2021/05/30 09:55:14;;;;;;;;;;;22.30;65.60;;;;;;5017165;28;19905;-75
2021/05/30 09:57:40;;;;;;;;;;;23.30;63.60;;;;;;5036264;28;19905;-74
2021/05/30 10:00:19;;;;;;;;;;;22.80;59.60;;;;;;5035749;28;19912;-70
2021/05/30 10:02:45;;;;;;;;;;;22.20;60.80;;;;;;5034649;28;19913;-75
2021/05/30 10:05:11;;;;;;;;;;;21.50;64.00;;;;;;5035930;28;19905;-71
2021/05/30 10:07:37;;;;;;;;;;;22.10;63.70;;;;;;5036067;28;20367;-74
2021/05/30 10:10:04;;;;;;;;;;;22.70;63.50;;;;;;5035511;28;19905;-73
2021/05/30 10:12:30;;;;;;;;;;;23.60;63.20;;;;;;5035760;28;19912;-74
2021/05/30 10:14:55;;;;;;;;;;;23.80;61.30;;;;;;5036041;28;19905;-71
2021/05/30 10:17:22;;;;;;;;;;;23.70;61.10;;;;;;5035409;28;19909;-75
2021/05/30 10:19:49;;;;;;;;;;;24.50;62.00;;;;;;5035744;28;19909;-74
2021/05/30 10:22:18;;;;;;;;;;;24.00;60.30;;;;;;5035774;28;19919;-75
2021/05/30 10:24:44;;;;;;;;;;;23.50;61.80;;;;;;5035662;28;19995;-73
2021/05/30 10:27:15;;;;;;;;;;;22.70;60.50;;;;;;5035508;28;19999;-71
2021/05/30 10:30:01;;;;;;;;;;;22.70;61.10;;;;;;5034545;28;19999;-74
2021/05/30 10:32:27;;;;;;;;;;;23.30;58.30;;;;;;5035341;28;19909;-74
2021/05/30 10:35:16;;;;;;;;;;;23.60;61.90;;;;;;5035391;28;19911;-74
2021/05/30 10:37:52;;;;;;;;;;;24.20;60.40;;;;;;5035363;28;19904;-74
2021/05/30 10:40:20;;;;;;;;;;;23.90;56.60;;;;;;5017304;28;19952;-72
2021/05/30 10:43:05;;;;;;;;;;;23.10;59.70;;;;;;5035101;28;19948;-74
2021/05/30 10:45:30;;;;;;;;;;;22.60;61.40;;;;;;5035052;28;20435;-73
2021/05/30 10:48:02;;;;;;;;;;;22.70;62.70;;;;;;5035131;28;19940;-71
2021/05/30 10:50:36;;;;;;;;;;;22.60;61.50;;;;;;5035054;28;20000;-73
2021/05/30 10:53:02;;;;;;;;;;;23.00;61.40;;;;;;5035113;28;19909;-71
2021/05/30 10:55:32;;;;;;;;;;;23.00;61.80;;;;;;5034744;28;20012;-74
2021/05/30 10:58:12;;;;;;;;;;;22.90;60.10;;;;;;5017195;28;19909;-74
2021/05/30 11:00:37;;;;;;;;;;;24.10;61.70;;;;;;5034929;28;19919;-72
2021/05/30 11:03:04;;;;;;;;;;;23.90;58.00;;;;;;5034744;28;19995;-74
2021/05/30 11:05:45;;;;;;;;;;;23.60;60.60;;;;;;5034938;28;19954;-74
2021/05/30 11:08:34;;;;;;;;;;;23.20;59.90;;;;;;5033305;28;19956;-76
2021/05/30 11:11:20;;;;;;;;;;;23.50;58.00;;;;;;5034813;28;19905;-74
2021/05/30 11:13:52;;;;;;;;;;;23.60;55.80;;;;;;5035083;28;19911;-72
2021/05/30 11:16:19;;;;;;;;;;;23.40;57.20;;;;;;5034856;28;19915;-74
2021/05/30 11:18:54;;;;;;;;;;;24.20;59.00;;;;;;5034652;28;19905;-74
2021/05/30 11:21:20;;;;;;;;;;;24.80;59.60;;;;;;5034746;28;20298;-73
2021/05/30 11:23:45;;;;;;;;;;;24.40;58.50;;;;;;5033400;28;19935;-72
2021/05/30 11:26:11;;;;;;;;;;;23.80;56.00;;;;;;5034432;28;19912;-75
2021/05/30 11:28:39;;;;;;;;;;;23.70;59.90;;;;;;5034004;28;19932;-75
2021/05/30 11:31:08;;;;;;;;;;;23.20;59.00;;;;;;5034531;28;19928;-75
2021/05/30 11:33:40;;;;;;;;;;;23.50;60.20;;;;;;5034562;28;19992;-75
2021/05/30 11:36:07;;;;;;;;;;;23.90;60.30;;;;;;5034380;28;19905;-75
2021/05/30 11:38:33;;;;;;;;;;;24.00;59.10;;;;;;5034254;28;19912;-72
2021/05/30 11:41:18;;;;;;;;;;;24.00;55.10;;;;;;5034025;28;19909;-72
2021/05/30 11:44:03;;;;;;;;;;;23.80;58.80;;;;;;5034535;28;19909;-74
2021/05/30 11:46:30;;;;;;;;;;;23.80;56.70;;;;;;5034083;28;19944;-74
2021/05/30 11:48:58;;;;;;;;;;;23.90;56.90;;;;;;5034448;28;20000;-71
2021/05/30 11:51:43;;;;;;;;;;;24.30;56.20;;;;;;5032250;28;19905;-75
2021/05/30 11:54:08;;;;;;;;;;;25.30;61.10;;;;;;5014520;28;19905;-72
2021/05/30 11:56:41;;;;;;;;;;;25.80;58.00;;;;;;5031529;28;19917;-72
2021/05/30 11:59:07;;;;;;;;;;;25.40;55.90;;;;;;5032200;28;19995;-74
2021/05/30 12:01:46;;;;;;;;;;;25.30;55.10;;;;;;5031728;28;20008;-74
2021/05/30 12:04:38;;;;;;;;;;;25.30;55.20;;;;;;5015339;28;19935;-73
2021/05/30 12:07:11;;;;;;;;;;;25.00;55.50;;;;;;5029288;28;20418;-76
2021/05/30 12:09:50;;;;;;;;;;;25.60;54.70;;;;;;5032738;28;19905;-75
2021/05/30 12:12:31;;;;;;;;;;;25.70;55.00;;;;;;5016165;28;20325;-74
2021/05/30 12:15:05;;;;;;;;;;;25.30;54.80;;;;;;5034655;28;20283;-74
2021/05/30 12:17:37;;;;;;;;;;;24.50;54.00;;;;;;5017596;28;19912;-75
2021/05/30 12:20:04;;;;;;;;;;;25.70;55.00;;;;;;5020141;28;19908;-77
2021/05/30 12:22:30;;;;;;;;;;;25.20;53.20;;;;;;5038019;28;19908;-76
2021/05/30 12:24:57;;;;;;;;;;;24.30;55.50;;;;;;5037930;28;19939;-77
2021/05/30 12:27:24;;;;;;;;;;;24.20;56.90;;;;;;5037636;28;20278;-76
2021/05/30 12:29:54;;;;;;;;;;;23.50;56.80;;;;;;5019604;28;19955;-74
2021/05/30 12:32:20;;;;;;;;;;;24.10;57.60;;;;;;5037635;28;19905;-79
2021/05/30 12:34:52;;;;;;;;;;;24.60;53.10;;;;;;5037502;28;19931;-79
2021/05/30 12:37:37;;;;;;;;;;;25.10;53.90;;;;;;5036706;28;19927;-76
2021/05/30 12:40:06;;;;;;;;;;;26.10;54.10;;;;;;5020332;28;19943;-75
2021/05/30 12:42:32;;;;;;;;;;;26.60;52.10;;;;;;5019927;28;19909;-79
2021/05/30 12:45:04;;;;;;;;;;;26.70;51.40;;;;;;5037439;28;20007;-79
2021/05/30 12:47:37;;;;;;;;;;;26.50;50.80;;;;;;5037536;28;20011;-77
2021/05/30 12:50:04;;;;;;;;;;;26.80;52.10;;;;;;5037446;28;19905;-78
2021/05/30 12:52:49;;;;;;;;;;;25.70;49.50;;;;;;5037593;28;19905;-78
2021/05/30 12:55:15;;;;;;;;;;;25.30;52.00;;;;;;5019410;28;20007;-75
2021/05/30 12:57:43;;;;;;;;;;;25.10;52.70;;;;;;5035878;28;19909;-80
2021/05/30 13:00:10;;;;;;;;;;;25.10;52.20;;;;;;5019284;28;19905;-76
2021/05/30 13:02:36;;;;;;;;;;;25.00;50.20;;;;;;5019266;28;19913;-79
2021/05/30 13:05:02;;;;;;;;;;;25.50;52.00;;;;;;5035912;28;20315;-79
2021/05/30 13:07:29;;;;;;;;;;;26.30;53.50;;;;;;5036321;28;19931;-76
2021/05/30 13:10:00;;;;;;;;;;;26.40;52.20;;;;;;5019126;28;19905;-78
2021/05/30 13:12:27;;;;;;;;;;;26.20;51.90;;;;;;5036840;28;19914;-76
2021/05/30 13:15:06;;;;;;;;;;;25.50;51.40;;;;;;5036608;28;19905;-80
2021/05/30 13:17:34;;;;;;;;;;;25.20;52.50;;;;;;5038222;28;19990;-78
2021/05/30 13:20:07;;;;;;;;;;;25.10;52.90;;;;;;5039062;28;19955;-74
2021/05/30 13:22:49;;;;;;;;;;;24.80;51.60;;;;;;5035607;28;19909;-80
2021/05/30 13:25:25;;;;;;;;;;;25.10;50.10;;;;;;5036677;28;19905;-78
2021/05/30 13:27:50;;;;;;;;;;;25.10;52.40;;;;;;5037567;28;19905;-79
2021/05/30 13:30:16;;;;;;;;;;;25.40;51.20;;;;;;5016148;28;20003;-78
2021/05/30 13:32:42;;;;;;;;;;;25.30;51.40;;;;;;5036693;28;20337;-79
2021/05/30 13:35:08;;;;;;;;;;;25.10;51.20;;;;;;5037454;28;20315;-76
2021/05/30 13:37:34;;;;;;;;;;;25.00;51.20;;;;;;5019381;28;19959;-75
2021/05/30 13:40:00;;;;;;;;;;;24.40;52.70;;;;;;5036738;28;19947;-77
2021/05/30 13:42:27;;;;;;;;;;;24.30;53.60;;;;;;5019322;28;19932;-75
2021/05/30 13:44:53;;;;;;;;;;;23.70;54.50;;;;;;5018659;28;20275;-78
2021/05/30 13:47:19;;;;;;;;;;;23.10;53.40;;;;;;5036368;28;19912;-77
2021/05/30 13:49:45;;;;;;;;;;;23.20;55.90;;;;;;5036059;28;19912;-75
2021/05/30 13:52:12;;;;;;;;;;;23.70;55.20;;;;;;5018256;28;19912;-74
2021/05/30 13:54:38;;;;;;;;;;;23.80;53.80;;;;;;5018225;28;19916;-74
2021/05/30 13:57:07;;;;;;;;;;;23.10;54.90;;;;;;5034501;28;19917;-75
2021/05/30 13:59:33;;;;;;;;;;;22.60;54.80;;;;;;5017989;28;19912;-76
2021/05/30 14:01:59;;;;;;;;;;;23.00;56.80;;;;;;5036042;28;19913;-76
2021/05/30 14:04:25;;;;;;;;;;;22.80;56.20;;;;;;5036034;28;20367;-80
2021/05/30 14:06:52;;;;;;;;;;;22.80;55.80;;;;;;5018182;28;19905;-78
2021/05/30 14:09:19;;;;;;;;;;;22.50;57.10;;;;;;5036034;28;19915;-74
2021/05/30 14:11:45;;;;;;;;;;;22.40;56.00;;;;;;5035616;28;19995;-73
2021/05/30 14:14:10;;;;;;;;;;;22.30;57.50;;;;;;5035754;28;19951;-73
2021/05/30 14:16:36;;;;;;;;;;;22.20;57.10;;;;;;5034516;28;20354;-73
2021/05/30 14:19:03;;;;;;;;;;;22.10;58.20;;;;;;5017074;28;19967;-71
2021/05/30 14:21:31;;;;;;;;;;;21.70;56.90;;;;;;5035402;28;19917;-74
2021/05/30 14:24:02;;;;;;;;;;;21.60;58.00;;;;;;5017189;28;19955;-77